createdAt,value
2023-03-13T00:01:19.290Z,32.45
2023-03-13T00:03:46.036Z,32.36
2023-03-13T00:06:13.052Z,32.36
2023-03-13T00:08:39.657Z,32.27
2023-03-13T00:11:08.416Z,32.38
2023-03-13T00:13:36.218Z,32.43
2023-03-13T00:16:08.455Z,32.31
2023-03-13T00:18:35.331Z,32.19
2023-03-13T00:21:04.363Z,32.51
2023-03-13T00:23:32.515Z,32.36
2023-03-13T00:26:01.539Z,32.57
2023-03-13T00:28:32.384Z,32.38
2023-03-13T00:31:14.962Z,32.55
2023-03-13T00:33:50.041Z,32.49
2023-03-13T00:36:20.050Z,32.19
2023-03-13T00:38:47.114Z,32.41
2023-03-13T00:41:16.592Z,32.32
2023-03-13T00:43:44.502Z,32.20
2023-03-13T00:46:12.775Z,32.20
2023-03-13T00:48:39.421Z,32.09
2023-03-13T00:51:07.568Z,32.15
2023-03-13T00:53:34.578Z,32.25
2023-03-13T00:56:04.141Z,32.36
2023-03-13T00:58:33.228Z,32.41
2023-03-13T01:01:13.736Z,32.33
2023-03-13T01:03:42.826Z,32.31
2023-03-13T01:06:13.339Z,32.11
2023-03-13T01:08:40.438Z,32.14
2023-03-13T01:11:13.020Z,32.24
2023-03-13T01:13:40.423Z,32.26
2023-03-13T01:16:11.452Z,32.27
2023-03-13T01:18:40.366Z,32.09
2023-03-13T01:21:07.448Z,32.35
2023-03-13T01:23:36.984Z,31.95
2023-03-13T01:26:06.990Z,32.13
2023-03-13T01:28:34.618Z,32.24
2023-03-13T01:31:01.641Z,32.05
2023-03-13T01:33:29.758Z,32.08
2023-03-13T01:36:01.974Z,32.00
2023-03-13T01:38:28.543Z,32.08
2023-03-13T01:40:55.365Z,32.08
2023-03-13T01:43:31.912Z,32.04
2023-03-13T01:46:16.459Z,32.23
2023-03-13T01:49:29.220Z,32.10
2023-03-13T01:52:06.848Z,32.15
2023-03-13T01:54:47.639Z,32.02
2023-03-13T01:57:25.010Z,32.14
2023-03-13T02:00:16.980Z,32.35
2023-03-13T02:02:48.502Z,32.05
2023-03-13T02:05:16.987Z,32.22
2023-03-13T02:07:57.017Z,33.08
2023-03-13T02:10:25.868Z,34.16
2023-03-13T02:12:56.530Z,34.46
2023-03-13T02:15:26.238Z,34.22
2023-03-13T02:17:54.687Z,33.77
2023-03-13T02:20:22.393Z,33.18
2023-03-13T02:23:00.849Z,33.23
2023-03-13T02:25:32.228Z,32.95
2023-03-13T02:27:59.194Z,32.74
2023-03-13T02:30:30.304Z,32.86
2023-03-13T02:32:57.501Z,32.61
2023-03-13T02:35:24.286Z,32.56
2023-03-13T02:37:57.023Z,32.36
2023-03-13T02:40:28.897Z,32.50
2023-03-13T02:42:59.023Z,32.27
2023-03-13T02:45:26.025Z,32.40
2023-03-13T02:47:52.670Z,32.23
2023-03-13T02:50:20.687Z,32.37
2023-03-13T02:52:53.522Z,32.20
2023-03-13T02:55:26.621Z,32.08
2023-03-13T02:57:53.392Z,32.30
2023-03-13T03:00:20.721Z,32.24
2023-03-13T03:02:47.343Z,32.25
2023-03-13T03:05:14.529Z,32.28
2023-03-13T03:07:41.162Z,32.16
2023-03-13T03:10:08.430Z,31.97
2023-03-13T03:12:35.759Z,32.05
2023-03-13T03:15:04.770Z,31.88
2023-03-13T03:17:32.492Z,32.04
2023-03-13T03:19:59.193Z,32.06
2023-03-13T03:22:25.930Z,32.02
2023-03-13T03:24:52.505Z,32.10
2023-03-13T03:27:19.354Z,31.84
2023-03-13T03:29:51.808Z,32.10
2023-03-13T03:32:18.461Z,31.71
2023-03-13T03:34:45.055Z,32.05
2023-03-13T03:37:11.700Z,31.93
2023-03-13T03:39:39.346Z,31.99
2023-03-13T03:42:06.559Z,32.11
2023-03-13T03:44:33.390Z,31.50
2023-03-13T03:47:00.881Z,31.82
2023-03-13T03:49:31.882Z,31.77
2023-03-13T03:51:58.579Z,31.87
2023-03-13T03:54:33.083Z,31.86
2023-03-13T03:57:00.359Z,31.98
2023-03-13T03:59:27.109Z,32.29
2023-03-13T04:01:59.266Z,32.46
2023-03-13T04:04:28.509Z,32.47
2023-03-13T04:07:01.498Z,32.62
2023-03-13T04:09:31.917Z,32.93
2023-03-13T04:11:59.821Z,33.00
2023-03-13T04:14:26.976Z,33.67
2023-03-13T04:16:54.485Z,33.92
2023-03-13T04:19:21.142Z,34.25
2023-03-13T04:21:47.772Z,34.53
2023-03-13T04:24:17.526Z,34.65
2023-03-13T04:26:45.143Z,34.70
2023-03-13T04:29:12.123Z,35.06
2023-03-13T04:31:48.274Z,35.02
2023-03-13T04:34:31.723Z,35.11
2023-03-13T04:37:04.577Z,35.20
2023-03-13T04:39:41.737Z,35.30
2023-03-13T04:42:34.606Z,35.15
2023-03-13T04:45:24.333Z,35.18
2023-03-13T04:48:13.168Z,35.42
2023-03-13T04:50:58.228Z,35.26
2023-03-13T04:53:30.059Z,35.48
2023-03-13T04:56:42.354Z,35.49
2023-03-13T04:59:28.951Z,35.62
2023-03-13T05:02:18.736Z,35.70
2023-03-13T05:05:01.156Z,35.56
2023-03-13T05:07:46.524Z,35.67
2023-03-13T05:10:32.079Z,35.25
2023-03-13T05:13:16.153Z,35.12
2023-03-13T05:15:53.145Z,34.96
2023-03-13T05:18:49.501Z,34.70
2023-03-13T05:21:34.576Z,34.70
2023-03-13T05:24:01.292Z,34.68
2023-03-13T05:26:44.732Z,34.48
2023-03-13T05:29:43.715Z,34.44
2023-03-13T05:32:16.866Z,34.53
2023-03-13T05:34:46.882Z,34.62
2023-03-13T05:39:55.799Z,34.89
2023-03-13T05:42:46.215Z,35.09
2023-03-13T05:45:15.782Z,34.92
2023-03-13T05:47:45.153Z,35.32
2023-03-13T05:50:31.852Z,35.14
2023-03-13T05:53:18.738Z,35.44
2023-03-13T05:55:57.018Z,35.47
2023-03-13T05:58:42.354Z,35.51
2023-03-13T06:01:14.993Z,35.26
2023-03-13T06:03:57.611Z,35.18
2023-03-13T06:06:25.391Z,35.12
2023-03-13T06:08:54.982Z,34.97
2023-03-13T06:11:23.973Z,35.01
2023-03-13T06:13:54.969Z,34.80
2023-03-13T06:16:28.212Z,35.12
2023-03-13T06:19:11.844Z,34.95
2023-03-13T06:21:39.174Z,34.82
2023-03-13T06:24:06.063Z,34.82
2023-03-13T06:26:32.796Z,34.72
2023-03-13T06:28:59.342Z,34.73
2023-03-13T06:31:26.162Z,34.77
2023-03-13T06:33:54.477Z,34.78
2023-03-13T06:36:22.692Z,34.75
2023-03-13T06:38:49.367Z,34.96
2023-03-13T06:41:16.445Z,34.76
2023-03-13T06:43:43.569Z,34.79
2023-03-13T06:46:17.673Z,34.65
2023-03-13T06:48:44.820Z,34.76
2023-03-13T06:51:12.748Z,34.67
2023-03-13T06:53:39.788Z,34.57
2023-03-13T06:56:07.491Z,34.76
2023-03-13T06:58:34.486Z,34.65
2023-03-13T07:01:08.048Z,34.60
2023-03-13T07:03:36.196Z,34.72
2023-03-13T07:06:03.733Z,34.87
2023-03-13T07:08:30.703Z,35.20
2023-03-13T07:11:02.874Z,36.07
2023-03-13T07:13:30.026Z,36.44
2023-03-13T07:16:00.403Z,36.52
2023-03-13T07:20:10.619Z,36.17
2023-03-13T07:22:38.065Z,36.50
2023-03-13T07:25:05.718Z,36.29
2023-03-13T07:27:33.142Z,35.92
2023-03-13T07:29:59.809Z,36.20
2023-03-13T07:32:46.445Z,35.98
2023-03-13T07:35:13.207Z,35.69
2023-03-13T07:37:39.748Z,35.87
2023-03-13T07:40:06.943Z,35.65
2023-03-13T07:42:33.811Z,35.98
2023-03-13T07:45:00.846Z,35.88
2023-03-13T07:47:30.208Z,35.75
2023-03-13T07:49:56.913Z,35.77
2023-03-13T07:52:23.556Z,35.47
2023-03-13T07:54:50.250Z,35.45
2023-03-13T07:57:17.660Z,35.45
2023-03-13T07:59:44.651Z,35.18
2023-03-13T08:02:13.755Z,35.33
2023-03-13T08:04:40.595Z,34.97
2023-03-13T08:07:11.077Z,34.89
2023-03-13T08:09:37.906Z,34.73
2023-03-13T08:12:06.468Z,35.08
2023-03-13T08:14:33.092Z,35.46
2023-03-13T08:16:59.838Z,35.90
2023-03-13T08:19:26.570Z,36.06
2023-03-13T08:21:53.159Z,35.98
2023-03-13T08:24:20.017Z,36.35
2023-03-13T08:26:46.800Z,36.14
2023-03-13T08:29:14.822Z,36.22
2023-03-13T08:31:47.929Z,36.54
2023-03-13T08:34:16.231Z,36.11
2023-03-13T08:36:43.125Z,36.55
2023-03-13T08:39:15.493Z,36.54
2023-03-13T08:41:42.924Z,36.51
2023-03-13T08:44:15.912Z,36.64
2023-03-13T08:46:44.039Z,37.09
2023-03-13T08:49:12.152Z,37.09
2023-03-13T08:53:57.932Z,37.43
2023-03-13T08:56:30.297Z,37.32
2023-03-13T08:58:59.901Z,37.22
2023-03-13T09:01:29.189Z,37.71
2023-03-13T09:03:57.284Z,37.95
2023-03-13T09:06:24.349Z,37.86
2023-03-13T09:08:51.083Z,38.27
2023-03-13T09:11:21.204Z,38.31
2023-03-13T09:13:50.614Z,38.34
2023-03-13T09:16:25.487Z,38.51
2023-03-13T09:18:53.581Z,38.52
2023-03-13T09:21:26.295Z,38.71
2023-03-13T09:23:53.234Z,38.83
2023-03-13T09:26:23.007Z,38.46
2023-03-13T09:28:51.652Z,38.50
2023-03-13T09:31:20.132Z,38.21
2023-03-13T09:33:48.696Z,37.85
2023-03-13T09:36:15.824Z,37.96
2023-03-13T09:38:42.766Z,37.96
2023-03-13T09:41:18.409Z,38.25
2023-03-13T09:43:59.782Z,38.45
2023-03-13T09:46:48.697Z,38.74
2023-03-13T09:49:29.017Z,39.00
2023-03-13T09:52:17.393Z,38.67
2023-03-13T09:54:51.050Z,39.20
2023-03-13T09:57:36.039Z,39.29
2023-03-13T10:00:12.890Z,39.28
2023-03-13T10:02:44.185Z,39.10
2023-03-13T10:05:20.714Z,39.19
2023-03-13T10:07:47.937Z,38.97
2023-03-13T10:10:18.030Z,39.23
2023-03-13T10:12:52.186Z,39.38
2023-03-13T10:15:34.293Z,39.33
2023-03-13T10:18:13.287Z,38.96
2023-03-13T10:20:40.853Z,39.34
2023-03-13T10:23:16.550Z,39.32
2023-03-13T10:25:43.262Z,39.45
2023-03-13T10:28:13.310Z,39.67
2023-03-13T10:30:52.171Z,39.42
2023-03-13T10:33:27.330Z,39.34
2023-03-13T10:36:04.030Z,39.48
2023-03-13T10:38:45.729Z,39.93
2023-03-13T10:41:22.787Z,39.83
2023-03-13T10:43:54.921Z,40.25
2023-03-13T10:46:27.185Z,39.88
2023-03-13T10:48:55.943Z,40.22
2023-03-13T10:51:25.232Z,40.19
2023-03-13T10:53:52.265Z,40.46
2023-03-13T10:56:31.559Z,40.71
2023-03-13T10:58:58.304Z,41.13
2023-03-13T11:01:33.644Z,41.02
2023-03-13T11:04:29.994Z,40.87
2023-03-13T11:07:14.491Z,41.18
2023-03-13T11:09:41.107Z,41.14
2023-03-13T11:12:17.391Z,41.04
2023-03-13T11:14:45.250Z,40.80
2023-03-13T11:17:38.747Z,40.76
2023-03-13T11:20:36.360Z,41.07
2023-03-13T11:23:19.701Z,41.16
2023-03-13T11:25:58.750Z,40.61
2023-03-13T11:28:49.766Z,40.57
2023-03-13T11:31:40.642Z,40.46
2023-03-13T11:34:26.554Z,40.67
2023-03-13T11:37:12.817Z,40.51
2023-03-13T11:39:58.379Z,40.85
2023-03-13T11:43:23.971Z,40.55
2023-03-13T11:46:12.613Z,39.79
2023-03-13T11:49:10.023Z,39.29
2023-03-13T11:52:11.215Z,38.95
2023-03-13T11:54:56.368Z,38.46
2023-03-13T11:57:35.254Z,38.59
2023-03-13T12:00:21.636Z,37.97
2023-03-13T12:03:05.705Z,37.64
2023-03-13T12:05:55.348Z,37.70
2023-03-13T12:08:34.574Z,37.80
2023-03-13T12:11:13.490Z,37.86
2023-03-13T12:14:15.863Z,38.07
2023-03-13T12:16:49.687Z,38.01
2023-03-13T12:19:22.682Z,37.54
2023-03-13T12:21:57.156Z,37.40
2023-03-13T12:24:46.096Z,37.37
2023-03-13T12:27:24.253Z,37.24
2023-03-13T12:30:00.153Z,37.05
2023-03-13T12:32:37.345Z,36.95
2023-03-13T12:35:28.784Z,36.91
2023-03-13T12:38:10.294Z,37.12
2023-03-13T12:40:51.887Z,37.05
2023-03-13T12:43:39.223Z,37.27
2023-03-13T12:46:43.086Z,37.35
2023-03-13T12:49:34.497Z,37.21
2023-03-13T12:52:10.244Z,37.53
2023-03-13T12:55:21.427Z,37.29
2023-03-13T12:57:59.887Z,37.46
2023-03-13T13:00:30.289Z,37.33
2023-03-13T13:03:07.823Z,37.42
2023-03-13T13:05:34.570Z,36.84
2023-03-13T13:08:01.095Z,36.73
2023-03-13T13:10:28.891Z,36.22
2023-03-13T13:13:13.757Z,36.16
2023-03-13T13:16:01.332Z,36.37
2023-03-13T13:18:29.006Z,36.81
2023-03-13T13:21:20.077Z,36.94
2023-03-13T13:23:48.164Z,37.06
2023-03-13T13:26:37.400Z,37.06
2023-03-13T13:29:13.087Z,37.52
2023-03-13T13:31:47.986Z,37.42
2023-03-13T13:34:34.523Z,37.62
2023-03-13T13:37:03.854Z,37.77
2023-03-13T13:39:40.436Z,37.84
2023-03-13T13:42:41.911Z,37.92
2023-03-13T13:45:14.595Z,38.27
2023-03-13T13:47:49.445Z,38.13
2023-03-13T13:50:27.048Z,38.55
2023-03-13T13:53:45.999Z,38.67
2023-03-13T13:56:28.527Z,38.68
2023-03-13T13:59:01.925Z,38.93
2023-03-13T14:01:29.340Z,38.82
2023-03-13T14:04:10.627Z,38.92
2023-03-13T14:06:39.021Z,38.86
2023-03-13T14:09:33.458Z,39.24
2023-03-13T14:12:00.237Z,39.27
2023-03-13T14:14:26.790Z,39.19
2023-03-13T14:16:58.438Z,39.02
2023-03-13T14:19:38.827Z,38.78
2023-03-13T14:22:08.287Z,38.92
2023-03-13T14:24:35.689Z,38.56
2023-03-13T14:27:14.507Z,37.98
2023-03-13T14:29:41.176Z,37.52
2023-03-13T14:32:08.062Z,37.07
2023-03-13T14:34:34.739Z,36.62
2023-03-13T14:37:17.411Z,36.60
2023-03-13T14:39:46.426Z,36.27
2023-03-13T14:42:15.971Z,36.14
2023-03-13T14:44:46.799Z,36.09
2023-03-13T14:47:26.917Z,36.04
2023-03-13T14:50:00.547Z,35.78
2023-03-13T14:52:32.597Z,35.64
2023-03-13T14:55:04.441Z,35.72
2023-03-13T14:57:32.351Z,35.58
2023-03-13T15:00:30.735Z,35.93
2023-03-13T15:03:25.791Z,36.03
2023-03-13T15:06:16.985Z,35.77
2023-03-13T15:08:46.310Z,35.46
2023-03-13T15:11:34.637Z,35.76
2023-03-13T15:14:01.920Z,35.60
2023-03-13T15:16:28.864Z,35.93
2023-03-13T15:18:56.793Z,36.02
2023-03-13T15:21:33.173Z,36.20
2023-03-13T15:24:02.408Z,36.17
2023-03-13T15:26:29.667Z,36.12
2023-03-13T15:28:56.335Z,35.59
2023-03-13T15:31:27.915Z,35.54
2023-03-13T15:33:57.820Z,35.51
2023-03-13T15:36:26.920Z,35.49
2023-03-13T15:38:54.049Z,35.42
2023-03-13T15:41:22.476Z,35.45
2023-03-13T15:43:55.253Z,35.42
2023-03-13T15:46:22.749Z,35.56
2023-03-13T15:48:51.409Z,35.23
2023-03-13T15:51:18.361Z,35.21
2023-03-13T15:53:46.153Z,35.02
2023-03-13T15:58:32.422Z,34.58
2023-03-13T16:00:59.062Z,34.93
2023-03-13T16:03:30.064Z,34.99
2023-03-13T16:05:57.466Z,34.79
2023-03-13T16:08:37.054Z,34.94
2023-03-13T16:11:04.676Z,35.28
2023-03-13T16:13:31.408Z,35.77
2023-03-13T16:15:58.555Z,35.77
2023-03-13T16:18:25.566Z,35.95
2023-03-13T16:20:53.786Z,36.51
2023-03-13T16:23:20.377Z,36.53
2023-03-13T16:25:48.620Z,36.64
2023-03-13T16:28:16.192Z,36.91
2023-03-13T16:30:47.824Z,37.38
2023-03-13T16:33:14.715Z,37.31
2023-03-13T16:35:41.319Z,37.25
2023-03-13T16:38:11.238Z,37.52
2023-03-13T16:40:37.844Z,37.45
2023-03-13T16:43:04.368Z,37.53
2023-03-13T16:45:30.976Z,37.43
2023-03-13T16:47:57.641Z,37.69
2023-03-13T16:50:31.383Z,37.27
2023-03-13T16:52:58.009Z,36.81
2023-03-13T16:55:28.298Z,36.64
2023-03-13T16:57:58.683Z,36.15
2023-03-13T17:00:27.706Z,36.26
2023-03-13T17:02:54.936Z,36.27
2023-03-13T17:05:21.608Z,36.76
2023-03-13T17:07:50.716Z,36.86
2023-03-13T17:10:27.992Z,37.04
2023-03-13T17:12:54.733Z,37.26
2023-03-13T17:15:21.706Z,37.34
2023-03-13T17:20:16.620Z,37.54
2023-03-13T17:22:43.674Z,37.38
2023-03-13T17:25:13.269Z,37.55
2023-03-13T17:27:40.934Z,37.62
2023-03-13T17:30:17.010Z,37.62
2023-03-13T17:32:43.695Z,37.80
2023-03-13T17:35:10.720Z,37.86
2023-03-13T17:37:37.520Z,37.74
2023-03-13T17:40:21.545Z,37.58
2023-03-13T17:42:48.608Z,37.33
2023-03-13T17:45:15.703Z,37.35
2023-03-13T17:47:42.566Z,37.07
2023-03-13T17:50:21.827Z,36.94
2023-03-13T17:52:49.060Z,36.92
2023-03-13T17:55:15.896Z,36.67
2023-03-13T17:57:43.848Z,36.79
2023-03-13T18:00:28.870Z,36.57
2023-03-13T18:02:56.120Z,36.43
2023-03-13T18:05:22.771Z,36.56
2023-03-13T18:07:49.861Z,36.40
2023-03-13T18:10:23.369Z,36.08
2023-03-13T18:12:51.493Z,36.01
2023-03-13T18:15:19.399Z,36.25
2023-03-13T18:17:46.386Z,36.12
2023-03-13T18:20:26.158Z,35.87
2023-03-13T18:22:52.757Z,35.82
2023-03-13T18:25:19.575Z,35.67
2023-03-13T18:27:46.408Z,35.49
2023-03-13T18:30:21.542Z,35.41
2023-03-13T18:32:49.032Z,35.81
2023-03-13T18:35:16.180Z,35.61
2023-03-13T18:37:45.075Z,35.34
2023-03-13T18:40:15.057Z,35.61
2023-03-13T18:42:41.670Z,35.59
2023-03-13T18:45:13.615Z,35.72
2023-03-13T18:47:40.191Z,35.38
2023-03-13T18:50:18.871Z,35.40
2023-03-13T18:52:45.623Z,35.47
2023-03-13T18:55:12.154Z,35.97
2023-03-13T18:57:38.768Z,36.45
2023-03-13T19:00:24.857Z,36.58
2023-03-13T19:02:51.720Z,37.02
2023-03-13T19:05:19.819Z,37.00
2023-03-13T19:07:51.086Z,36.99
2023-03-13T19:10:32.240Z,37.19
2023-03-13T19:12:59.012Z,37.55
2023-03-13T19:15:30.042Z,37.67
2023-03-13T19:18:01.841Z,37.57
2023-03-13T19:20:30.095Z,37.73
2023-03-13T19:23:00.375Z,38.38
2023-03-13T19:25:29.997Z,38.08
2023-03-13T19:27:58.960Z,38.14
2023-03-13T19:30:27.355Z,38.14
2023-03-13T19:32:54.319Z,38.33
2023-03-13T19:35:22.041Z,38.24
2023-03-13T19:37:49.503Z,37.74
2023-03-13T19:40:30.261Z,37.84
2023-03-13T19:42:57.179Z,37.83
2023-03-13T19:45:23.768Z,37.71
2023-03-13T19:47:53.179Z,38.06
2023-03-13T19:50:28.926Z,37.58
2023-03-13T19:52:57.869Z,37.79
2023-03-13T19:55:24.621Z,37.69
2023-03-13T19:57:52.703Z,37.76
2023-03-13T20:00:31.046Z,37.64
2023-03-13T20:02:57.885Z,37.60
2023-03-13T20:05:30.118Z,37.48
2023-03-13T20:07:59.145Z,37.60
2023-03-13T20:10:25.840Z,37.46
2023-03-13T20:12:53.622Z,37.45
2023-03-13T20:15:20.397Z,37.27
2023-03-13T20:17:47.000Z,37.46
2023-03-13T20:20:13.990Z,37.25
2023-03-13T20:22:42.424Z,36.86
2023-03-13T20:25:09.682Z,36.78
2023-03-13T20:27:37.355Z,36.96
2023-03-13T20:30:07.602Z,36.95
2023-03-13T20:32:34.532Z,36.50
2023-03-13T20:35:01.168Z,36.93
2023-03-13T20:37:27.871Z,36.70
2023-03-13T20:39:54.394Z,36.70
2023-03-13T20:42:22.624Z,36.73
2023-03-13T20:44:52.080Z,36.87
2023-03-13T20:47:18.699Z,36.83
2023-03-13T20:49:45.316Z,36.94
2023-03-13T20:52:11.943Z,36.95
2023-03-13T20:54:38.848Z,37.16
2023-03-13T20:57:05.672Z,36.99
2023-03-13T20:59:32.301Z,37.06
2023-03-13T21:01:59.645Z,37.28
2023-03-13T21:04:28.978Z,37.04
2023-03-13T21:06:57.760Z,36.94
2023-03-13T21:09:29.985Z,36.99
2023-03-13T21:11:56.643Z,36.84
2023-03-13T21:14:23.163Z,37.21
2023-03-13T21:16:49.733Z,37.11
2023-03-13T21:19:16.382Z,36.96
2023-03-13T21:21:43.030Z,37.12
2023-03-13T21:24:10.551Z,37.04
2023-03-13T21:26:37.695Z,37.34
2023-03-13T21:29:04.242Z,37.17
2023-03-13T21:31:32.253Z,37.05
2023-03-13T21:33:59.306Z,37.18
2023-03-13T21:36:26.117Z,37.34
2023-03-13T21:38:52.659Z,37.36
2023-03-13T21:41:21.636Z,37.20
2023-03-13T21:43:48.565Z,37.10
2023-03-13T21:46:18.190Z,36.57
2023-03-13T21:51:16.999Z,36.46
2023-03-13T21:53:44.468Z,36.27
2023-03-13T21:56:15.278Z,36.75
2023-03-13T21:58:42.707Z,36.87
2023-03-13T22:01:09.299Z,36.34
2023-03-13T22:03:36.117Z,36.52
2023-03-13T22:06:02.765Z,36.23
2023-03-13T22:08:29.754Z,36.18
2023-03-13T22:10:58.643Z,36.11
2023-03-13T22:13:25.391Z,36.08
2023-03-13T22:15:52.758Z,36.01
2023-03-13T22:18:19.722Z,35.76
2023-03-13T22:20:46.282Z,35.62
2023-03-13T22:23:13.342Z,35.91
2023-03-13T22:25:42.270Z,35.79
2023-03-13T22:30:22.448Z,35.39
2023-03-13T22:32:49.051Z,35.74
2023-03-13T22:35:16.369Z,35.51
2023-03-13T22:37:43.423Z,35.75
2023-03-13T22:40:11.242Z,35.46
2023-03-13T22:42:38.076Z,35.62
2023-03-13T22:45:05.297Z,35.39
2023-03-13T22:47:32.698Z,35.51
2023-03-13T22:49:59.210Z,35.44
2023-03-13T22:52:30.796Z,35.25
2023-03-13T22:54:58.894Z,35.54
2023-03-13T22:57:25.536Z,35.23
2023-03-13T22:59:53.862Z,35.59
2023-03-13T23:02:20.516Z,35.33
2023-03-13T23:04:47.099Z,35.33
2023-03-13T23:07:14.034Z,35.32
2023-03-13T23:09:40.646Z,35.29
2023-03-13T23:12:07.229Z,35.20
2023-03-13T23:14:34.006Z,35.30
2023-03-13T23:17:00.837Z,35.46
2023-03-13T23:19:27.429Z,35.09
2023-03-13T23:21:53.983Z,35.29
2023-03-13T23:24:20.738Z,35.50
2023-03-13T23:26:47.262Z,35.30
2023-03-13T23:29:14.384Z,35.35
2023-03-13T23:31:40.938Z,35.29
2023-03-13T23:34:07.550Z,35.40
2023-03-13T23:36:34.076Z,35.57
2023-03-13T23:39:02.870Z,35.46
2023-03-13T23:41:29.388Z,35.56
2023-03-13T23:43:56.091Z,35.64
2023-03-13T23:46:26.331Z,35.64
2023-03-13T23:48:57.037Z,35.61
2023-03-13T23:51:24.688Z,35.26
2023-03-13T23:53:51.457Z,35.51
2023-03-13T23:56:18.187Z,35.46
2023-03-13T23:58:44.814Z,35.43
